createdAt,value
2022-12-11T00:02:05.719Z,15.07
2022-12-11T00:04:32.558Z,11.85
2022-12-11T00:06:59.375Z,11.50
2022-12-11T00:09:26.132Z,12.38
2022-12-11T00:11:52.914Z,12.18
2022-12-11T00:14:19.737Z,16.25
2022-12-11T00:16:48.470Z,11.57
2022-12-11T00:19:15.855Z,15.63
2022-12-11T00:21:42.657Z,15.65
2022-12-11T00:24:09.421Z,15.45
2022-12-11T00:26:36.250Z,14.07
2022-12-11T00:29:03.704Z,10.90
2022-12-11T00:31:30.621Z,15.15
2022-12-11T00:33:57.720Z,12.40
2022-12-11T00:36:26.379Z,15.45
2022-12-11T00:38:54.093Z,12.55
2022-12-11T00:41:21.639Z,14.48
2022-12-11T00:46:15.288Z,14.80
2022-12-11T00:48:42.393Z,13.38
2022-12-11T00:51:09.978Z,15.10
2022-12-11T00:58:36.415Z,14.30
2022-12-11T01:01:12.562Z,15.38
2022-12-11T01:03:39.713Z,14.30
2022-12-11T01:06:06.983Z,15.35
2022-12-11T01:08:38.288Z,15.63
2022-12-11T01:11:08.739Z,15.90
2022-12-11T01:13:36.041Z,17.73
2022-12-11T01:16:11.113Z,14.60
2022-12-11T01:18:38.707Z,14.15
2022-12-11T01:23:33.100Z,13.68
2022-12-11T01:26:06.316Z,14.82
2022-12-11T01:28:33.172Z,14.27
2022-12-11T01:31:00.128Z,12.18
2022-12-11T01:33:27.383Z,11.57
2022-12-11T01:35:54.312Z,16.33
2022-12-11T01:38:21.073Z,12.13
2022-12-11T01:40:49.451Z,16.40
2022-12-11T01:43:16.209Z,16.80
2022-12-11T01:45:45.898Z,16.15
2022-12-11T01:48:16.124Z,16.27
2022-12-11T01:51:04.707Z,15.32
2022-12-11T01:53:45.782Z,15.57
2022-12-11T01:56:12.949Z,17.08
2022-12-11T01:58:48.847Z,13.88
2022-12-11T02:01:24.776Z,13.75
2022-12-11T02:03:52.674Z,13.38
2022-12-11T02:06:37.633Z,14.15
2022-12-11T02:09:08.839Z,13.50
2022-12-11T02:11:42.890Z,14.32
2022-12-11T02:14:26.736Z,14.30
2022-12-11T02:17:00.096Z,14.50
2022-12-11T02:19:54.225Z,15.50
2022-12-11T02:22:58.555Z,14.65
2022-12-11T02:25:38.571Z,13.43
2022-12-11T02:28:19.953Z,14.25
2022-12-11T02:30:51.607Z,16.02
2022-12-11T02:33:25.973Z,14.00
2022-12-11T02:35:53.895Z,14.95
2022-12-11T02:38:30.274Z,15.70
2022-12-11T02:40:59.535Z,10.23
2022-12-11T02:43:28.887Z,15.20
2022-12-11T02:45:56.718Z,14.88
2022-12-11T02:48:24.550Z,16.17
2022-12-11T02:50:56.123Z,15.10
2022-12-11T02:53:26.014Z,15.43
2022-12-11T02:55:58.522Z,16.90
2022-12-11T02:58:30.703Z,16.83
2022-12-11T03:00:57.599Z,14.85
2022-12-11T03:03:24.810Z,11.55
2022-12-11T03:05:51.554Z,15.75
2022-12-11T03:08:18.602Z,16.98
2022-12-11T03:10:46.306Z,17.52
2022-12-11T03:13:19.955Z,15.98
2022-12-11T03:16:37.331Z,16.13
2022-12-11T03:19:31.682Z,13.68
2022-12-11T03:22:18.955Z,15.98
2022-12-11T03:24:57.426Z,16.33
2022-12-11T03:27:32.834Z,15.40
2022-12-11T03:30:14.118Z,17.83
2022-12-11T03:32:50.275Z,16.85
2022-12-11T03:35:28.947Z,17.20
2022-12-11T03:37:57.878Z,16.90
2022-12-11T03:40:27.752Z,16.20
2022-12-11T03:42:56.965Z,18.27
2022-12-11T03:45:25.940Z,17.55
2022-12-11T03:47:55.162Z,17.77
2022-12-11T03:50:24.554Z,18.02
2022-12-11T03:52:52.239Z,17.80
2022-12-11T03:55:21.084Z,19.27
2022-12-11T03:57:48.452Z,18.25
2022-12-11T04:00:19.014Z,18.35
2022-12-11T04:03:12.647Z,18.80
2022-12-11T04:05:46.862Z,18.38
2022-12-11T04:08:14.479Z,18.95
2022-12-11T04:10:42.067Z,17.35
2022-12-11T04:15:37.262Z,16.90
2022-12-11T04:18:23.671Z,19.88
2022-12-11T04:21:12.611Z,14.48
2022-12-11T04:23:57.960Z,20.13
2022-12-11T04:26:25.006Z,18.70
2022-12-11T04:28:51.825Z,20.35
2022-12-11T04:31:21.272Z,15.75
2022-12-11T04:33:48.788Z,18.45
2022-12-11T04:36:16.194Z,17.13
2022-12-11T04:38:42.978Z,20.08
2022-12-11T04:41:12.560Z,15.45
2022-12-11T04:43:39.799Z,20.27
2022-12-11T04:46:10.965Z,18.95
2022-12-11T04:48:39.063Z,18.23
2022-12-11T04:51:06.815Z,18.48
2022-12-11T04:53:34.411Z,17.10
2022-12-11T04:56:01.546Z,16.77
2022-12-11T04:58:28.374Z,16.45
2022-12-11T05:00:55.111Z,13.48
2022-12-11T05:03:21.949Z,14.38
2022-12-11T05:05:50.569Z,13.18
2022-12-11T05:08:18.848Z,16.55
2022-12-11T05:10:54.504Z,18.20
2022-12-11T05:13:21.266Z,17.08
2022-12-11T05:15:48.163Z,16.92
2022-12-11T05:18:14.903Z,14.65
2022-12-11T05:20:41.690Z,15.02
2022-12-11T05:23:08.457Z,14.80
2022-12-11T05:25:35.219Z,11.00
2022-12-11T05:28:02.009Z,18.23
2022-12-11T05:30:28.779Z,14.48
2022-12-11T05:32:55.498Z,12.00
2022-12-11T05:35:22.232Z,13.67
2022-12-11T05:37:48.965Z,13.38
2022-12-11T05:40:15.825Z,13.88
2022-12-11T05:42:42.610Z,12.30
2022-12-11T05:45:10.201Z,12.82
2022-12-11T05:47:37.331Z,13.55
2022-12-11T05:50:04.263Z,11.48
2022-12-11T05:52:31.770Z,12.45
2022-12-11T05:57:25.282Z,13.55
2022-12-11T05:59:52.028Z,9.93
2022-12-11T06:02:18.884Z,10.90
2022-12-11T06:04:45.707Z,13.77
2022-12-11T06:07:13.379Z,10.65
2022-12-11T06:09:40.164Z,15.13
2022-12-11T06:12:06.976Z,15.02
2022-12-11T06:14:33.798Z,13.90
2022-12-11T06:17:01.461Z,14.63
2022-12-11T06:19:31.909Z,14.32
2022-12-11T06:22:01.846Z,14.65
2022-12-11T06:24:28.605Z,10.07
2022-12-11T06:26:55.352Z,12.18
2022-12-11T06:29:22.100Z,11.63
2022-12-11T06:31:48.902Z,14.23
2022-12-11T06:34:15.784Z,11.23
2022-12-11T06:36:42.553Z,10.05
2022-12-11T06:39:09.607Z,13.32
2022-12-11T06:41:36.414Z,15.57
2022-12-11T06:44:03.663Z,10.43
2022-12-11T06:46:30.454Z,11.43
2022-12-11T06:48:57.216Z,10.63
2022-12-11T06:51:24.043Z,12.82
2022-12-11T06:53:55.890Z,13.27
2022-12-11T06:56:23.984Z,11.60
2022-12-11T06:58:51.833Z,11.82
2022-12-11T07:01:25.487Z,13.60
2022-12-11T07:03:57.300Z,11.93
2022-12-11T07:06:25.818Z,12.10
2022-12-11T07:08:53.014Z,11.48
2022-12-11T07:11:21.015Z,11.82
2022-12-11T07:13:48.126Z,11.68
2022-12-11T07:16:17.224Z,9.90
2022-12-11T07:18:48.298Z,10.77
2022-12-11T07:21:15.225Z,12.10
2022-12-11T07:23:42.488Z,8.85
2022-12-11T07:26:12.533Z,9.65
2022-12-11T07:28:39.952Z,8.80
2022-12-11T07:31:14.754Z,10.98
2022-12-11T07:33:42.647Z,9.98
2022-12-11T07:36:11.639Z,10.25
2022-12-11T07:38:38.862Z,9.32
2022-12-11T07:41:11.271Z,9.52
2022-12-11T07:43:38.107Z,8.85
2022-12-11T07:46:07.921Z,9.77
2022-12-11T07:48:39.021Z,9.07
2022-12-11T07:51:26.404Z,9.65
2022-12-11T07:54:05.107Z,8.55
2022-12-11T07:56:32.240Z,9.23
2022-12-11T07:59:00.908Z,9.82
2022-12-11T08:01:29.425Z,9.50
2022-12-11T08:03:56.706Z,8.85
2022-12-11T08:06:29.081Z,9.57
2022-12-11T08:08:57.431Z,9.35
2022-12-11T08:11:24.826Z,10.13
2022-12-11T08:13:51.720Z,9.48
2022-12-11T08:16:19.614Z,10.00
2022-12-11T08:18:47.948Z,9.80
2022-12-11T08:21:17.978Z,11.73
2022-12-11T08:23:44.866Z,11.00
2022-12-11T08:26:15.232Z,7.85
2022-12-11T08:28:42.011Z,8.43
2022-12-11T08:31:10.394Z,9.60
2022-12-11T08:33:38.284Z,9.95
2022-12-11T08:36:11.203Z,8.98
2022-12-11T08:38:38.087Z,8.27
2022-12-11T08:41:16.637Z,8.48
2022-12-11T08:43:44.296Z,8.77
2022-12-11T08:46:12.683Z,8.93
2022-12-11T08:48:41.417Z,9.57
2022-12-11T08:51:12.028Z,9.68
2022-12-11T08:53:39.533Z,9.05
2022-12-11T08:58:35.554Z,8.23
2022-12-11T09:01:11.418Z,9.45
2022-12-11T09:03:39.863Z,10.45
2022-12-11T09:06:08.944Z,9.65
2022-12-11T09:08:36.172Z,9.52
2022-12-11T09:11:14.362Z,9.63
2022-12-11T09:13:41.811Z,9.15
2022-12-11T09:16:11.264Z,8.68
2022-12-11T09:18:39.310Z,8.68
2022-12-11T09:21:08.893Z,8.90
2022-12-11T09:23:36.124Z,8.98
2022-12-11T09:26:07.645Z,9.95
2022-12-11T09:28:34.904Z,8.00
2022-12-11T09:31:01.858Z,7.72
2022-12-11T09:33:28.692Z,6.60
2022-12-11T09:36:03.178Z,8.75
2022-12-11T09:38:30.516Z,7.35
2022-12-11T09:40:57.408Z,7.97
2022-12-11T09:43:29.924Z,5.85
2022-12-11T09:45:57.208Z,6.38
2022-12-11T09:48:26.243Z,6.50
2022-12-11T09:50:54.980Z,6.65
2022-12-11T09:53:34.502Z,7.30
2022-12-11T09:56:11.598Z,6.28
2022-12-11T09:59:09.287Z,6.78
2022-12-11T10:02:12.076Z,6.90
2022-12-11T10:04:56.714Z,6.63
2022-12-11T10:07:49.353Z,6.03
2022-12-11T10:10:32.152Z,5.60
2022-12-11T10:13:09.934Z,5.70
2022-12-11T10:15:41.182Z,6.15
2022-12-11T10:18:15.770Z,6.07
2022-12-11T10:20:44.285Z,5.93
2022-12-11T10:23:20.929Z,5.95
2022-12-11T10:26:03.878Z,6.47
2022-12-11T10:28:30.650Z,5.78
2022-12-11T10:31:15.818Z,6.68
2022-12-11T10:34:02.469Z,5.97
2022-12-11T10:36:36.838Z,7.30
2022-12-11T10:39:10.852Z,7.15
2022-12-11T10:41:42.367Z,6.95
2022-12-11T10:44:29.269Z,6.60
2022-12-11T10:47:12.295Z,5.78
2022-12-11T10:49:43.181Z,6.13
2022-12-11T10:52:20.976Z,5.88
2022-12-11T10:54:59.318Z,5.32
2022-12-11T10:57:37.656Z,6.53
2022-12-11T11:00:07.054Z,6.43
2022-12-11T11:02:41.682Z,6.88
2022-12-11T11:05:15.019Z,6.05
2022-12-11T11:07:41.891Z,6.47
2022-12-11T11:10:11.491Z,6.28
2022-12-11T11:12:47.521Z,7.00
2022-12-11T11:15:26.927Z,5.25
2022-12-11T11:17:56.311Z,4.82
2022-12-11T11:20:26.558Z,4.70
2022-12-11T11:22:56.669Z,5.28
2022-12-11T11:25:26.579Z,5.78
2022-12-11T11:27:58.355Z,6.80
2022-12-11T11:30:28.509Z,7.18
2022-12-11T11:33:02.072Z,6.30
2022-12-11T11:35:30.558Z,6.25
2022-12-11T11:38:09.128Z,6.05
2022-12-11T11:40:51.406Z,5.10
2022-12-11T11:43:30.087Z,6.18
2022-12-11T11:46:03.163Z,5.80
2022-12-11T11:48:47.982Z,5.35
2022-12-11T11:51:32.011Z,5.60
2022-12-11T11:54:01.895Z,5.65
2022-12-11T11:56:36.170Z,5.88
2022-12-11T11:59:11.643Z,5.30
2022-12-11T12:01:42.093Z,6.10
2022-12-11T12:04:11.075Z,6.63
2022-12-11T12:06:48.948Z,6.07
2022-12-11T12:09:43.621Z,7.03
2022-12-11T12:12:34.252Z,6.00
2022-12-11T12:15:01.822Z,7.00
2022-12-11T12:17:55.083Z,6.03
2022-12-11T12:21:04.807Z,6.30
2022-12-11T12:23:53.803Z,6.72
2022-12-11T12:26:32.985Z,6.90
2022-12-11T12:29:21.476Z,7.78
2022-12-11T12:32:09.645Z,7.63
2022-12-11T12:34:59.303Z,7.13
2022-12-11T12:37:45.759Z,7.18
2022-12-11T12:40:30.709Z,5.07
2022-12-11T12:43:30.768Z,8.02
2022-12-11T12:45:57.555Z,7.93
2022-12-11T12:48:25.986Z,6.20
2022-12-11T12:50:53.226Z,8.27
2022-12-11T12:53:24.129Z,7.85
2022-12-11T12:55:52.503Z,8.65
2022-12-11T12:58:31.069Z,8.18
2022-12-11T13:01:10.687Z,7.45
2022-12-11T13:03:57.353Z,8.57
2022-12-11T13:06:44.296Z,7.78
2022-12-11T13:09:17.450Z,8.27
2022-12-11T13:11:47.226Z,8.40
2022-12-11T13:14:15.463Z,8.05
2022-12-11T13:16:50.976Z,8.70
2022-12-11T13:19:25.483Z,7.13
2022-12-11T13:22:02.458Z,6.88
2022-12-11T13:24:32.449Z,6.78
2022-12-11T13:27:24.631Z,6.93
2022-12-11T13:29:52.169Z,6.03
2022-12-11T13:34:57.623Z,7.00
2022-12-11T13:37:34.859Z,8.05
2022-12-11T13:43:22.146Z,7.38
2022-12-11T13:46:00.520Z,8.15
2022-12-11T13:48:33.690Z,7.38
2022-12-11T13:51:02.574Z,7.95
2022-12-11T13:53:29.534Z,7.75
2022-12-11T13:56:00.549Z,8.35
2022-12-11T13:58:28.825Z,7.82
2022-12-11T14:01:11.113Z,8.45
2022-12-11T14:03:45.155Z,7.15
2022-12-11T14:06:18.344Z,7.35
2022-12-11T14:08:50.035Z,7.10
2022-12-11T14:11:23.458Z,8.55
2022-12-11T14:13:51.350Z,8.07
2022-12-11T14:16:22.742Z,8.48
2022-12-11T14:18:54.092Z,8.13
2022-12-11T14:21:25.690Z,7.45
2022-12-11T14:23:55.341Z,7.60
2022-12-11T14:26:29.420Z,8.93
2022-12-11T14:28:56.183Z,8.00
2022-12-11T14:31:37.995Z,7.15
2022-12-11T14:34:18.711Z,7.57
2022-12-11T14:36:47.675Z,7.63
2022-12-11T14:39:20.412Z,8.27
2022-12-11T14:42:17.514Z,7.30
2022-12-11T14:44:55.218Z,7.68
2022-12-11T14:47:28.253Z,7.15
2022-12-11T14:50:01.462Z,8.40
2022-12-11T14:52:39.912Z,7.60
2022-12-11T14:55:17.172Z,7.72
2022-12-11T14:57:47.686Z,8.23
2022-12-11T15:00:27.674Z,7.72
2022-12-11T15:03:00.151Z,8.00
2022-12-11T15:05:27.850Z,7.80
2022-12-11T15:10:36.360Z,7.00
2022-12-11T15:13:05.815Z,8.48
2022-12-11T15:15:43.712Z,7.97
2022-12-11T15:18:23.975Z,8.80
2022-12-11T15:20:53.611Z,7.90
2022-12-11T15:23:20.777Z,7.85
2022-12-11T15:25:56.875Z,8.00
2022-12-11T15:28:36.390Z,8.27
2022-12-11T15:31:26.733Z,7.32
2022-12-11T15:33:53.963Z,8.43
2022-12-11T15:36:31.755Z,9.10
2022-12-11T15:38:58.570Z,8.25
2022-12-11T15:41:25.938Z,8.75
2022-12-11T15:43:59.200Z,8.13
2022-12-11T15:46:26.567Z,9.20
2022-12-11T15:48:53.999Z,8.20
2022-12-11T15:51:20.746Z,9.52
2022-12-11T15:53:47.522Z,8.68
2022-12-11T15:56:15.895Z,6.53
2022-12-11T15:58:45.450Z,8.23
2022-12-11T16:01:12.331Z,8.43
2022-12-11T16:03:39.155Z,6.85
2022-12-11T16:06:06.136Z,6.28
2022-12-11T16:08:33.059Z,9.35
2022-12-11T16:10:59.964Z,9.52
2022-12-11T16:13:27.276Z,13.63
2022-12-11T16:15:54.357Z,8.73
2022-12-11T16:18:23.490Z,9.98
2022-12-11T16:20:51.275Z,9.13
2022-12-11T16:23:18.414Z,8.52
2022-12-11T16:25:46.341Z,10.32
2022-12-11T16:28:15.230Z,10.27
2022-12-11T16:30:43.440Z,9.60
2022-12-11T16:33:13.302Z,10.52
2022-12-11T16:35:41.878Z,11.95
2022-12-11T16:38:10.017Z,10.77
2022-12-11T16:40:37.481Z,10.10
2022-12-11T16:43:05.019Z,9.77
2022-12-11T16:48:01.905Z,8.38
2022-12-11T16:50:28.670Z,9.57
2022-12-11T16:52:56.422Z,7.88
2022-12-11T16:55:23.157Z,9.32
2022-12-11T16:57:49.887Z,8.40
2022-12-11T17:00:17.023Z,6.70
2022-12-11T17:02:43.888Z,8.30
2022-12-11T17:05:11.029Z,9.85
2022-12-11T17:07:38.135Z,10.73
2022-12-11T17:10:05.519Z,7.80
2022-12-11T17:12:32.337Z,8.45
2022-12-11T17:14:59.125Z,6.90
2022-12-11T17:17:25.971Z,9.98
2022-12-11T17:19:52.805Z,7.32
2022-12-11T17:22:19.829Z,9.80
2022-12-11T17:24:46.876Z,6.78
2022-12-11T17:27:13.881Z,8.80
2022-12-11T17:29:40.634Z,7.78
2022-12-11T17:32:07.367Z,10.32
2022-12-11T17:34:38.109Z,7.60
2022-12-11T17:37:05.589Z,10.40
2022-12-11T17:39:32.776Z,11.63
2022-12-11T17:41:59.735Z,10.77
2022-12-11T17:44:26.766Z,9.88
2022-12-11T17:46:53.768Z,10.18
2022-12-11T17:49:20.547Z,10.55
2022-12-11T17:51:47.929Z,10.02
2022-12-11T17:54:14.898Z,10.85
2022-12-11T17:56:41.774Z,7.75
2022-12-11T17:59:08.497Z,8.27
2022-12-11T18:01:35.626Z,9.23
2022-12-11T18:04:02.726Z,11.02
2022-12-11T18:06:30.212Z,11.63
2022-12-11T18:08:57.967Z,10.13
2022-12-11T18:11:25.346Z,11.45
2022-12-11T18:13:53.364Z,10.25
2022-12-11T18:16:32.827Z,10.55
2022-12-11T18:19:00.033Z,9.90
2022-12-11T18:21:32.751Z,11.80
2022-12-11T18:24:00.632Z,10.57
2022-12-11T18:26:27.678Z,11.10
2022-12-11T18:28:54.738Z,12.45
2022-12-11T18:31:22.369Z,10.40
2022-12-11T18:33:49.768Z,10.65
2022-12-11T18:36:18.697Z,10.05
2022-12-11T18:38:46.935Z,10.02
2022-12-11T18:41:15.428Z,9.80
2022-12-11T18:43:42.539Z,9.63
2022-12-11T18:46:12.510Z,10.05
2022-12-11T18:48:39.727Z,10.18
2022-12-11T18:51:09.109Z,10.25
2022-12-11T18:53:39.004Z,11.02
2022-12-11T18:56:13.153Z,11.50
2022-12-11T18:58:40.258Z,10.48
2022-12-11T19:01:28.848Z,11.48
2022-12-11T19:04:04.452Z,10.65
2022-12-11T19:06:35.554Z,11.55
2022-12-11T19:09:05.628Z,11.02
2022-12-11T19:11:34.343Z,11.20
2022-12-11T19:14:01.501Z,11.20
2022-12-11T19:16:34.469Z,11.25
2022-12-11T19:19:04.229Z,11.48
2022-12-11T19:21:31.268Z,11.50
2022-12-11T19:23:59.236Z,11.35
2022-12-11T19:26:26.326Z,11.25
2022-12-11T19:28:53.732Z,11.45
2022-12-11T19:31:22.808Z,12.43
2022-12-11T19:33:50.107Z,10.70
2022-12-11T19:36:19.754Z,11.95
2022-12-11T19:38:46.963Z,11.35
2022-12-11T19:41:22.948Z,11.30
2022-12-11T19:43:50.788Z,11.85
2022-12-11T19:46:18.791Z,12.65
2022-12-11T19:48:47.928Z,10.30
2022-12-11T19:51:17.323Z,11.60
2022-12-11T19:53:45.508Z,10.82
2022-12-11T19:56:14.112Z,10.50
2022-12-11T19:58:41.559Z,10.43
2022-12-11T20:01:09.091Z,11.13
2022-12-11T20:03:36.428Z,10.80
2022-12-11T20:06:06.181Z,9.70
2022-12-11T20:08:44.871Z,8.98
2022-12-11T20:11:17.951Z,9.32
2022-12-11T20:13:46.300Z,10.75
2022-12-11T20:16:14.208Z,12.20
2022-12-11T20:18:41.606Z,11.20
2022-12-11T20:21:12.337Z,10.50
2022-12-11T20:23:39.308Z,10.32
2022-12-11T20:26:14.777Z,7.57
2022-12-11T20:28:44.807Z,7.50
2022-12-11T20:31:19.744Z,10.25
2022-12-11T20:33:48.644Z,9.73
2022-12-11T20:36:17.199Z,10.93
2022-12-11T20:38:44.436Z,10.10
2022-12-11T20:41:17.691Z,11.30
2022-12-11T20:43:45.019Z,14.65
2022-12-11T20:46:14.827Z,15.20
2022-12-11T20:48:43.172Z,13.50
2022-12-11T20:51:12.734Z,11.38
2022-12-11T20:53:40.126Z,11.32
2022-12-11T20:56:19.150Z,10.50
2022-12-11T20:58:46.313Z,10.90
2022-12-11T21:01:15.297Z,11.00
2022-12-11T21:03:42.576Z,9.82
2022-12-11T21:06:21.232Z,11.85
2022-12-11T21:08:48.365Z,11.70
2022-12-11T21:11:15.177Z,12.27
2022-12-11T21:13:42.029Z,12.63
2022-12-11T21:16:10.115Z,10.05
2022-12-11T21:18:37.229Z,12.95
2022-12-11T21:21:04.361Z,12.90
2022-12-11T21:23:31.530Z,11.70
2022-12-11T21:25:58.315Z,12.40
2022-12-11T21:28:27.286Z,12.75
2022-12-11T21:31:00.225Z,12.10
2022-12-11T21:33:27.779Z,11.70
2022-12-11T21:35:56.541Z,12.18
2022-12-11T21:38:23.667Z,13.98
2022-12-11T21:40:52.110Z,13.25
2022-12-11T21:43:19.411Z,13.38
2022-12-11T21:46:02.420Z,14.50
2022-12-11T21:48:29.437Z,12.50
2022-12-11T21:51:03.813Z,12.10
2022-12-11T21:53:30.599Z,12.63
2022-12-11T21:55:57.632Z,11.98
2022-12-11T21:58:24.389Z,11.43
2022-12-11T22:00:51.246Z,9.77
2022-12-11T22:03:18.229Z,9.90
2022-12-11T22:05:45.004Z,9.98
2022-12-11T22:08:11.826Z,10.75
2022-12-11T22:10:38.694Z,10.93
2022-12-11T22:13:05.455Z,10.48
2022-12-11T22:15:32.289Z,13.50
2022-12-11T22:17:59.041Z,12.40
2022-12-11T22:20:25.857Z,10.40
2022-12-11T22:22:52.630Z,10.25
2022-12-11T22:25:19.497Z,9.55
2022-12-11T22:27:46.249Z,12.68
2022-12-11T22:30:13.464Z,13.13
2022-12-11T22:32:40.462Z,13.20
2022-12-11T22:35:07.631Z,10.60
2022-12-11T22:37:34.389Z,12.38
2022-12-11T22:40:01.189Z,9.65
2022-12-11T22:42:27.964Z,13.30
2022-12-11T22:44:54.739Z,14.82
2022-12-11T22:47:21.491Z,11.77
2022-12-11T22:49:48.259Z,10.52
2022-12-11T22:52:15.157Z,10.77
2022-12-11T22:54:42.911Z,13.02
2022-12-11T22:57:09.922Z,12.32
2022-12-11T22:59:36.802Z,11.98
2022-12-11T23:02:03.604Z,12.30
2022-12-11T23:04:30.620Z,9.38
2022-12-11T23:06:57.915Z,11.15
2022-12-11T23:09:25.121Z,11.13
2022-12-11T23:11:52.632Z,11.25
2022-12-11T23:14:19.488Z,12.45
2022-12-11T23:16:46.440Z,9.02
2022-12-11T23:19:13.611Z,12.48
2022-12-11T23:21:40.951Z,11.95
2022-12-11T23:24:08.947Z,12.20
2022-12-11T23:26:36.340Z,12.55
2022-12-11T23:29:04.733Z,12.77
2022-12-11T23:31:32.184Z,12.23
2022-12-11T23:36:26.399Z,12.57
2022-12-11T23:38:54.948Z,12.05
2022-12-11T23:41:22.806Z,12.00
2022-12-11T23:46:19.097Z,11.52
2022-12-11T23:48:46.347Z,13.02
2022-12-11T23:51:16.255Z,12.23
2022-12-11T23:53:43.643Z,12.93
2022-12-11T23:56:19.810Z,11.70
2022-12-11T23:58:47.206Z,12.50
